createdAt,value
2023-02-16T00:01:57.256Z,10.07
2023-02-16T00:04:29.336Z,11.07
2023-02-16T00:06:57.392Z,10.93
2023-02-16T00:09:24.755Z,11.37
2023-02-16T00:12:11.646Z,9.63
2023-02-16T00:14:39.531Z,11.10
2023-02-16T00:17:06.752Z,9.97
2023-02-16T00:19:38.728Z,10.33
2023-02-16T00:22:07.627Z,13.20
2023-02-16T00:24:34.928Z,13.17
2023-02-16T00:27:02.036Z,12.83
2023-02-16T00:29:31.512Z,11.50
2023-02-16T00:32:00.526Z,11.03
2023-02-16T00:34:53.366Z,12.03
2023-02-16T00:37:22.066Z,12.93
2023-02-16T00:39:48.647Z,12.13
2023-02-16T00:42:25.528Z,12.20
2023-02-16T00:44:56.221Z,12.43
2023-02-16T00:47:28.863Z,14.13
2023-02-16T00:49:56.970Z,12.47
2023-02-16T00:52:28.317Z,12.23
2023-02-16T00:54:55.501Z,11.50
2023-02-16T00:57:22.978Z,10.87
2023-02-16T01:00:00.372Z,11.07
2023-02-16T01:02:27.727Z,9.30
2023-02-16T01:04:55.962Z,14.03
2023-02-16T01:07:42.870Z,11.70
2023-02-16T01:10:29.743Z,12.33
2023-02-16T01:12:56.904Z,13.47
2023-02-16T01:15:25.802Z,12.33
2023-02-16T01:17:52.903Z,8.37
2023-02-16T01:20:25.147Z,10.10
2023-02-16T01:22:52.485Z,11.53
2023-02-16T01:25:19.559Z,12.43
2023-02-16T01:27:48.321Z,14.13
2023-02-16T01:30:18.896Z,18.17
2023-02-16T01:32:51.323Z,13.50
2023-02-16T01:35:33.442Z,12.37
2023-02-16T01:38:00.623Z,9.67
2023-02-16T01:40:32.899Z,15.80
2023-02-16T01:43:30.295Z,10.73
2023-02-16T01:46:05.928Z,13.17
2023-02-16T01:48:33.031Z,10.10
2023-02-16T01:51:07.044Z,14.53
2023-02-16T01:53:42.703Z,10.10
2023-02-16T01:56:18.775Z,15.50
2023-02-16T01:58:54.263Z,11.90
2023-02-16T02:01:44.182Z,16.33
2023-02-16T02:04:38.705Z,13.33
2023-02-16T02:07:06.058Z,11.23
2023-02-16T02:09:43.041Z,8.37
2023-02-16T02:12:49.418Z,10.83
2023-02-16T02:15:19.967Z,10.17
2023-02-16T02:17:47.067Z,15.20
2023-02-16T02:20:56.572Z,18.87
2023-02-16T02:23:50.993Z,16.83
2023-02-16T02:26:49.658Z,14.30
2023-02-16T02:29:44.756Z,11.70
2023-02-16T02:32:39.721Z,10.03
2023-02-16T02:35:51.438Z,11.13
2023-02-16T02:38:42.272Z,13.43
2023-02-16T02:41:20.601Z,14.60
2023-02-16T02:44:00.206Z,12.47
2023-02-16T02:46:33.794Z,15.80
2023-02-16T02:49:00.868Z,12.43
2023-02-16T02:51:31.087Z,14.10
2023-02-16T02:54:34.340Z,13.57
2023-02-16T02:57:45.915Z,13.40
2023-02-16T03:00:43.915Z,11.70
2023-02-16T03:03:31.919Z,12.00
2023-02-16T03:06:16.970Z,13.87
2023-02-16T03:08:47.996Z,15.23
2023-02-16T03:11:40.100Z,14.37
2023-02-16T03:14:14.959Z,12.50
2023-02-16T03:16:45.085Z,15.53
2023-02-16T03:19:34.058Z,12.93
2023-02-16T03:22:20.102Z,15.70
2023-02-16T03:25:06.175Z,15.57
2023-02-16T03:27:57.134Z,16.30
2023-02-16T03:30:26.027Z,11.80
2023-02-16T03:32:53.379Z,11.50
2023-02-16T03:35:20.791Z,16.87
2023-02-16T03:37:47.937Z,14.13
2023-02-16T03:40:29.345Z,12.23
2023-02-16T03:43:07.536Z,14.10
2023-02-16T03:45:37.401Z,14.00
2023-02-16T03:48:04.656Z,10.63
2023-02-16T03:50:31.670Z,11.67
2023-02-16T03:53:06.745Z,16.00
2023-02-16T03:55:45.243Z,13.20
2023-02-16T03:58:15.457Z,13.27
2023-02-16T04:00:42.586Z,11.70
2023-02-16T04:03:09.796Z,14.27
2023-02-16T04:05:37.176Z,13.13
2023-02-16T04:08:04.474Z,14.43
2023-02-16T04:10:31.144Z,13.50
2023-02-16T04:12:57.809Z,12.87
2023-02-16T04:15:27.197Z,16.23
2023-02-16T04:17:54.656Z,14.70
2023-02-16T04:20:24.232Z,17.03
2023-02-16T04:22:51.334Z,22.40
2023-02-16T04:25:18.884Z,18.50
2023-02-16T04:27:46.081Z,24.13
2023-02-16T04:30:15.900Z,21.57
2023-02-16T04:32:42.995Z,11.93
2023-02-16T04:35:10.082Z,18.17
2023-02-16T04:37:37.105Z,15.93
2023-02-16T04:40:04.545Z,16.60
2023-02-16T04:42:31.559Z,22.03
2023-02-16T04:44:58.604Z,17.60
2023-02-16T04:47:28.617Z,17.77
2023-02-16T04:49:55.328Z,16.40
2023-02-16T04:52:22.503Z,19.17
2023-02-16T04:54:49.180Z,18.00
2023-02-16T04:57:16.596Z,23.27
2023-02-16T04:59:43.681Z,23.77
2023-02-16T05:02:10.707Z,18.20
2023-02-16T05:04:37.890Z,23.17
2023-02-16T05:07:04.976Z,23.27
2023-02-16T05:09:32.009Z,22.63
2023-02-16T05:12:17.698Z,21.07
2023-02-16T05:14:45.466Z,22.10
2023-02-16T05:17:21.236Z,18.57
2023-02-16T05:19:50.914Z,20.20
2023-02-16T05:22:18.374Z,21.73
2023-02-16T05:24:45.745Z,23.87
2023-02-16T05:27:24.415Z,19.93
2023-02-16T05:29:51.445Z,18.97
2023-02-16T05:32:18.849Z,20.53
2023-02-16T05:34:45.736Z,20.37
2023-02-16T05:37:13.499Z,26.57
2023-02-16T05:39:40.564Z,19.60
2023-02-16T05:42:07.720Z,23.10
2023-02-16T05:44:34.811Z,20.83
2023-02-16T05:47:01.849Z,25.60
2023-02-16T05:49:28.865Z,24.73
2023-02-16T05:51:55.881Z,22.03
2023-02-16T05:54:22.971Z,17.67
2023-02-16T05:56:51.991Z,22.60
2023-02-16T05:59:19.078Z,23.80
2023-02-16T06:01:50.549Z,24.73
2023-02-16T06:04:18.579Z,22.97
2023-02-16T06:06:45.723Z,20.20
2023-02-16T06:09:13.003Z,21.43
2023-02-16T06:11:40.053Z,28.90
2023-02-16T06:14:17.538Z,17.67
2023-02-16T06:16:47.174Z,23.03
2023-02-16T06:19:16.362Z,22.43
2023-02-16T06:21:43.278Z,17.43
2023-02-16T06:24:11.674Z,16.77
2023-02-16T06:26:38.324Z,22.50
2023-02-16T06:29:05.604Z,17.87
2023-02-16T06:31:35.824Z,21.03
2023-02-16T06:34:04.062Z,22.50
2023-02-16T06:36:31.375Z,24.77
2023-02-16T06:38:58.669Z,20.67
2023-02-16T06:41:32.258Z,18.27
2023-02-16T06:44:04.849Z,19.17
2023-02-16T06:46:32.052Z,27.70
2023-02-16T06:48:59.569Z,20.20
2023-02-16T06:51:26.816Z,19.10
2023-02-16T06:53:53.874Z,20.13
2023-02-16T06:56:20.571Z,20.60
2023-02-16T06:58:47.564Z,19.77
2023-02-16T07:01:14.748Z,19.70
2023-02-16T07:03:41.842Z,21.07
2023-02-16T07:06:08.901Z,24.87
2023-02-16T07:08:35.958Z,27.13
2023-02-16T07:11:03.322Z,33.07
2023-02-16T07:13:30.466Z,35.53
2023-02-16T07:15:57.613Z,25.10
2023-02-16T07:18:24.666Z,25.70
2023-02-16T07:20:51.715Z,19.50
2023-02-16T07:23:18.757Z,23.43
2023-02-16T07:25:45.811Z,20.50
2023-02-16T07:28:12.845Z,20.60
2023-02-16T07:30:40.160Z,19.57
2023-02-16T07:33:07.553Z,23.17
2023-02-16T07:35:35.761Z,18.73
2023-02-16T07:38:03.205Z,17.53
2023-02-16T07:40:29.871Z,21.20
2023-02-16T07:43:00.128Z,19.83
2023-02-16T07:45:27.137Z,13.87
2023-02-16T07:47:54.199Z,21.07
2023-02-16T07:50:21.298Z,16.63
2023-02-16T07:52:48.337Z,18.50
2023-02-16T07:55:15.400Z,18.67
2023-02-16T07:57:42.586Z,20.10
2023-02-16T08:00:10.078Z,17.63
2023-02-16T08:02:40.300Z,18.27
2023-02-16T08:05:07.530Z,17.93
2023-02-16T08:07:34.674Z,17.07
2023-02-16T08:10:01.676Z,19.67
2023-02-16T08:12:28.693Z,16.27
2023-02-16T08:14:55.705Z,17.67
2023-02-16T08:17:22.840Z,21.27
2023-02-16T08:19:50.335Z,23.73
2023-02-16T08:22:18.186Z,22.23
2023-02-16T08:24:45.229Z,19.60
2023-02-16T08:27:12.336Z,23.87
2023-02-16T08:29:39.093Z,20.93
2023-02-16T08:32:07.821Z,20.23
2023-02-16T08:34:35.226Z,19.27
2023-02-16T08:37:02.319Z,19.50
2023-02-16T08:39:31.658Z,18.63
2023-02-16T08:41:59.765Z,20.90
2023-02-16T08:44:27.932Z,19.70
2023-02-16T08:46:58.658Z,23.53
2023-02-16T08:49:25.945Z,19.30
2023-02-16T08:51:55.418Z,21.03
2023-02-16T08:54:29.862Z,20.27
2023-02-16T08:56:58.788Z,20.93
2023-02-16T08:59:28.332Z,23.97
2023-02-16T09:01:55.958Z,21.10
2023-02-16T09:04:24.361Z,18.17
2023-02-16T09:06:52.323Z,20.63
2023-02-16T09:09:20.103Z,23.97
2023-02-16T09:11:47.216Z,19.90
2023-02-16T09:14:15.412Z,20.97
2023-02-16T09:16:45.697Z,18.63
2023-02-16T09:19:14.956Z,16.07
2023-02-16T09:21:42.296Z,19.37
2023-02-16T09:24:11.440Z,18.33
2023-02-16T09:26:42.596Z,20.03
2023-02-16T09:29:12.173Z,16.53
2023-02-16T09:31:39.664Z,17.20
2023-02-16T09:34:20.227Z,19.37
2023-02-16T09:36:47.379Z,17.13
2023-02-16T09:39:14.701Z,17.57
2023-02-16T09:41:41.820Z,20.67
2023-02-16T09:44:33.117Z,15.73
2023-02-16T09:47:04.749Z,20.30
2023-02-16T09:49:41.004Z,20.67
2023-02-16T09:52:37.206Z,16.17
2023-02-16T09:55:13.299Z,17.93
2023-02-16T09:58:04.208Z,16.77
2023-02-16T10:00:33.845Z,15.10
2023-02-16T10:03:06.504Z,15.80
2023-02-16T10:05:52.895Z,15.17
2023-02-16T10:08:32.391Z,14.13
2023-02-16T10:11:41.609Z,15.53
2023-02-16T10:14:14.747Z,17.13
2023-02-16T10:16:46.662Z,15.73
2023-02-16T10:19:21.995Z,16.70
2023-02-16T10:21:53.893Z,21.87
2023-02-16T10:24:21.169Z,20.67
2023-02-16T10:27:02.468Z,19.30
2023-02-16T10:29:29.374Z,16.43
2023-02-16T10:31:58.829Z,16.63
2023-02-16T10:34:40.426Z,16.83
2023-02-16T10:37:20.079Z,16.50
2023-02-16T10:40:23.147Z,14.40
2023-02-16T10:42:59.352Z,18.10
2023-02-16T10:45:27.392Z,17.13
2023-02-16T10:47:54.757Z,21.57
2023-02-16T10:50:27.615Z,18.23
2023-02-16T10:53:17.460Z,16.43
2023-02-16T10:55:44.290Z,16.77
2023-02-16T10:58:26.899Z,16.77
2023-02-16T11:01:00.914Z,20.53
2023-02-16T11:03:33.308Z,19.50
2023-02-16T11:06:18.116Z,14.57
2023-02-16T11:08:50.892Z,18.77
2023-02-16T11:11:18.309Z,16.10
2023-02-16T11:13:49.037Z,18.50
2023-02-16T11:16:26.453Z,16.70
2023-02-16T11:19:21.588Z,20.80
2023-02-16T11:21:50.830Z,16.80
2023-02-16T11:24:28.150Z,18.67
2023-02-16T11:27:05.590Z,21.47
2023-02-16T11:29:32.663Z,16.73
2023-02-16T11:32:04.641Z,17.87
2023-02-16T11:34:52.409Z,17.87
2023-02-16T11:37:32.976Z,17.67
2023-02-16T11:40:04.284Z,19.20
2023-02-16T11:42:47.006Z,15.47
2023-02-16T11:45:33.656Z,20.87
2023-02-16T11:48:12.149Z,19.90
2023-02-16T11:50:54.654Z,23.23
2023-02-16T11:53:27.841Z,17.90
2023-02-16T11:56:12.814Z,18.57
2023-02-16T11:58:40.164Z,18.03
2023-02-16T12:01:25.772Z,19.63
2023-02-16T12:04:22.330Z,22.17
2023-02-16T12:07:03.653Z,18.10
2023-02-16T12:09:31.170Z,21.03
2023-02-16T12:12:12.738Z,19.67
2023-02-16T12:15:17.132Z,19.33
2023-02-16T12:18:17.766Z,19.00
2023-02-16T12:21:05.528Z,19.43
2023-02-16T12:23:46.931Z,19.23
2023-02-16T12:26:38.208Z,27.00
2023-02-16T12:29:26.647Z,22.17
2023-02-16T12:32:02.266Z,22.33
2023-02-16T12:34:43.769Z,16.20
2023-02-16T12:37:36.783Z,18.70
2023-02-16T12:40:16.670Z,21.80
2023-02-16T12:43:03.180Z,20.70
2023-02-16T12:45:36.517Z,22.93
2023-02-16T12:48:36.820Z,19.17
2023-02-16T12:51:10.270Z,20.03
2023-02-16T12:53:50.823Z,21.90
2023-02-16T12:56:25.013Z,21.00
2023-02-16T12:59:00.418Z,34.13
2023-02-16T13:01:32.805Z,28.20
2023-02-16T13:04:36.165Z,23.33
2023-02-16T13:07:18.128Z,27.00
2023-02-16T13:10:10.062Z,22.17
2023-02-16T13:12:47.120Z,30.37
2023-02-16T13:15:18.257Z,19.73
2023-02-16T13:17:58.429Z,31.80
2023-02-16T13:20:25.654Z,23.63
2023-02-16T13:23:11.372Z,23.43
2023-02-16T13:25:38.496Z,21.70
2023-02-16T13:28:37.082Z,19.60
2023-02-16T13:31:29.315Z,33.47
2023-02-16T13:34:42.329Z,25.10
2023-02-16T13:37:34.376Z,32.90
2023-02-16T13:40:01.750Z,32.77
2023-02-16T13:42:53.740Z,22.23
2023-02-16T13:45:28.128Z,35.13
2023-02-16T13:47:56.598Z,41.47
2023-02-16T13:50:23.841Z,21.47
2023-02-16T13:52:52.557Z,27.60
2023-02-16T13:55:34.651Z,32.60
2023-02-16T13:58:18.069Z,22.97
2023-02-16T14:00:47.637Z,23.27
2023-02-16T14:03:17.460Z,20.90
2023-02-16T14:05:46.916Z,24.17
2023-02-16T14:08:30.858Z,21.50
2023-02-16T14:11:03.855Z,24.53
2023-02-16T14:13:42.443Z,19.97
2023-02-16T14:16:18.443Z,20.33
2023-02-16T14:19:16.546Z,24.23
2023-02-16T14:21:46.610Z,22.60
2023-02-16T14:24:24.936Z,25.80
2023-02-16T14:26:59.309Z,21.60
2023-02-16T14:29:40.765Z,21.67
2023-02-16T14:32:13.646Z,23.80
2023-02-16T14:34:46.505Z,20.97
2023-02-16T14:37:16.190Z,23.47
2023-02-16T14:40:06.870Z,27.27
2023-02-16T14:42:35.700Z,24.03
2023-02-16T14:45:03.424Z,24.50
2023-02-16T14:48:04.224Z,24.80
2023-02-16T14:51:00.406Z,21.33
2023-02-16T14:54:08.559Z,20.03
2023-02-16T14:56:45.358Z,25.80
2023-02-16T14:59:12.392Z,22.90
2023-02-16T15:01:41.418Z,24.30
2023-02-16T15:04:10.891Z,22.93
2023-02-16T15:06:45.039Z,22.60
2023-02-16T15:09:20.007Z,23.13
2023-02-16T15:12:22.557Z,19.33
2023-02-16T15:15:01.732Z,22.30
2023-02-16T15:17:39.250Z,20.63
2023-02-16T15:20:28.145Z,22.47
2023-02-16T15:22:57.463Z,18.37
2023-02-16T15:25:33.819Z,25.07
2023-02-16T15:28:12.595Z,24.47
2023-02-16T15:30:48.078Z,27.53
2023-02-16T15:33:34.129Z,26.90
2023-02-16T15:36:07.281Z,26.07
2023-02-16T15:38:37.921Z,26.27
2023-02-16T15:41:15.233Z,25.60
2023-02-16T15:43:50.565Z,25.40
2023-02-16T15:46:36.832Z,23.20
2023-02-16T15:49:25.743Z,25.10
2023-02-16T15:51:55.348Z,26.13
2023-02-16T15:54:22.386Z,23.77
2023-02-16T15:56:51.556Z,27.17
2023-02-16T15:59:43.251Z,30.00
2023-02-16T16:02:19.324Z,27.63
2023-02-16T16:04:58.304Z,27.07
2023-02-16T16:07:32.543Z,30.60
2023-02-16T16:10:00.141Z,27.37
2023-02-16T16:12:27.573Z,33.00
2023-02-16T16:14:57.872Z,31.93
2023-02-16T16:17:33.100Z,30.63
2023-02-16T16:20:25.670Z,25.87
2023-02-16T16:23:01.692Z,34.20
2023-02-16T16:25:36.827Z,29.23
2023-02-16T16:28:06.908Z,32.53
2023-02-16T16:30:35.498Z,28.90
2023-02-16T16:33:08.946Z,25.33
2023-02-16T16:35:36.307Z,26.87
2023-02-16T16:38:03.413Z,28.70
2023-02-16T16:40:35.016Z,25.27
2023-02-16T16:43:04.857Z,32.57
2023-02-16T16:45:48.081Z,28.03
2023-02-16T16:48:28.870Z,25.97
2023-02-16T16:51:33.859Z,31.47
2023-02-16T16:54:23.601Z,33.90
2023-02-16T16:56:50.645Z,27.43
2023-02-16T16:59:17.671Z,29.27
2023-02-16T17:01:46.284Z,29.87
2023-02-16T17:04:13.428Z,30.00
2023-02-16T17:06:40.534Z,28.60
2023-02-16T17:09:07.620Z,27.40
2023-02-16T17:11:37.829Z,27.73
2023-02-16T17:14:19.397Z,26.17
2023-02-16T17:16:50.636Z,26.83
2023-02-16T17:19:22.828Z,26.17
2023-02-16T17:21:50.194Z,31.20
2023-02-16T17:24:17.261Z,30.43
2023-02-16T17:26:44.377Z,28.97
2023-02-16T17:29:11.385Z,31.00
2023-02-16T17:31:38.590Z,30.70
2023-02-16T17:34:05.274Z,26.13
2023-02-16T17:36:32.653Z,27.07
2023-02-16T17:38:59.688Z,30.90
2023-02-16T17:41:28.418Z,28.40
2023-02-16T17:43:55.495Z,30.63
2023-02-16T17:46:22.654Z,28.97
2023-02-16T17:48:51.538Z,26.60
2023-02-16T17:51:19.912Z,27.10
2023-02-16T17:53:46.947Z,36.35
2023-02-16T17:56:15.599Z,33.67
2023-02-16T17:58:42.733Z,31.50
2023-02-16T18:01:13.464Z,29.20
2023-02-16T18:03:40.587Z,30.80
2023-02-16T18:06:08.055Z,31.10
2023-02-16T18:08:35.083Z,31.87
2023-02-16T18:11:02.230Z,36.80
2023-02-16T18:13:29.672Z,31.87
2023-02-16T18:15:57.519Z,33.07
2023-02-16T18:18:24.640Z,31.83
2023-02-16T18:20:51.732Z,29.63
2023-02-16T18:23:18.795Z,32.37
2023-02-16T18:25:45.938Z,30.90
2023-02-16T18:28:20.953Z,34.90
2023-02-16T18:30:50.484Z,33.90
2023-02-16T18:33:18.438Z,32.90
2023-02-16T18:35:45.514Z,30.77
2023-02-16T18:38:12.796Z,32.30
2023-02-16T18:40:41.796Z,31.17
2023-02-16T18:43:10.686Z,30.80
2023-02-16T18:45:39.292Z,28.73
2023-02-16T18:48:06.341Z,27.53
2023-02-16T18:50:33.675Z,27.13
2023-02-16T18:53:00.732Z,23.93
2023-02-16T18:55:32.711Z,23.17
2023-02-16T18:58:07.644Z,26.47
2023-02-16T19:00:36.038Z,22.33
2023-02-16T19:03:03.158Z,24.17
2023-02-16T19:05:30.569Z,23.00
2023-02-16T19:07:57.245Z,23.40
2023-02-16T19:10:25.048Z,25.23
2023-02-16T19:12:52.273Z,22.10
2023-02-16T19:15:19.384Z,24.83
2023-02-16T19:17:46.531Z,19.20
2023-02-16T19:20:17.936Z,16.90
2023-02-16T19:22:45.936Z,25.63
2023-02-16T19:25:13.189Z,21.27
2023-02-16T19:27:40.274Z,18.33
2023-02-16T19:30:07.550Z,21.47
2023-02-16T19:32:34.700Z,19.47
2023-02-16T19:35:01.359Z,22.73
2023-02-16T19:37:28.394Z,16.47
2023-02-16T19:39:55.504Z,14.77
2023-02-16T19:42:22.541Z,15.40
2023-02-16T19:44:49.546Z,16.20
2023-02-16T19:47:16.601Z,20.90
2023-02-16T19:49:44.007Z,19.60
2023-02-16T19:52:13.567Z,16.30
2023-02-16T19:54:40.601Z,15.07
2023-02-16T19:57:07.212Z,13.53
2023-02-16T19:59:33.975Z,17.07
2023-02-16T20:02:01.031Z,13.93
2023-02-16T20:04:28.100Z,14.07
2023-02-16T20:06:56.322Z,14.00
2023-02-16T20:09:23.908Z,12.37
2023-02-16T20:11:51.676Z,14.40
2023-02-16T20:14:18.351Z,20.77
2023-02-16T20:16:45.485Z,13.50
2023-02-16T20:19:12.218Z,18.53
2023-02-16T20:21:40.780Z,14.90
2023-02-16T20:24:07.922Z,16.50
2023-02-16T20:26:38.797Z,15.90
2023-02-16T20:29:08.025Z,14.10
2023-02-16T20:31:46.967Z,13.50
2023-02-16T20:34:14.103Z,17.00
2023-02-16T20:36:40.716Z,17.97
2023-02-16T20:39:08.230Z,13.40
2023-02-16T20:44:27.052Z,14.17
2023-02-16T20:46:54.127Z,14.07
2023-02-16T20:49:20.786Z,12.33
2023-02-16T20:51:47.479Z,13.27
2023-02-16T20:54:14.600Z,17.00
2023-02-16T20:56:41.221Z,15.83
2023-02-16T20:59:08.320Z,13.20
2023-02-16T21:01:43.819Z,15.27
2023-02-16T21:04:11.155Z,18.97
2023-02-16T21:06:38.219Z,16.90
2023-02-16T21:09:06.830Z,17.40
2023-02-16T21:11:33.962Z,16.50
2023-02-16T21:14:02.114Z,13.93
2023-02-16T21:16:29.560Z,13.40
2023-02-16T21:18:56.707Z,16.00
2023-02-16T21:21:23.913Z,13.60
2023-02-16T21:23:53.201Z,14.70
2023-02-16T21:26:22.374Z,13.80
2023-02-16T21:28:49.614Z,14.03
2023-02-16T21:31:20.690Z,19.83
2023-02-16T21:33:48.027Z,16.93
2023-02-16T21:36:20.969Z,16.37
2023-02-16T21:38:48.472Z,14.03
2023-02-16T21:41:24.494Z,13.27
2023-02-16T21:44:18.164Z,15.90
2023-02-16T21:46:46.706Z,16.43
2023-02-16T21:49:20.193Z,17.97
2023-02-16T21:51:48.030Z,15.10
2023-02-16T21:54:16.740Z,17.83
2023-02-16T21:56:50.863Z,16.03
2023-02-16T21:59:19.238Z,17.03
2023-02-16T22:01:50.855Z,13.93
2023-02-16T22:04:21.577Z,15.67
2023-02-16T22:06:50.212Z,16.67
2023-02-16T22:09:20.597Z,15.73
2023-02-16T22:11:47.736Z,22.67
2023-02-16T22:14:14.710Z,16.97
2023-02-16T22:16:41.884Z,15.97
2023-02-16T22:19:12.132Z,16.27
2023-02-16T22:21:41.221Z,15.20
2023-02-16T22:24:10.300Z,17.80
2023-02-16T22:26:37.373Z,17.27
2023-02-16T22:29:06.134Z,15.80
2023-02-16T22:31:33.716Z,17.17
2023-02-16T22:34:03.357Z,15.90
2023-02-16T22:36:30.645Z,19.43
2023-02-16T22:38:57.838Z,15.30
2023-02-16T22:41:25.573Z,14.40
2023-02-16T22:43:54.367Z,17.27
2023-02-16T22:46:22.245Z,18.93
2023-02-16T22:48:49.407Z,14.37
2023-02-16T22:51:16.756Z,11.90
2023-02-16T22:53:43.560Z,16.57
2023-02-16T22:56:14.910Z,16.27
2023-02-16T22:58:41.704Z,15.57
2023-02-16T23:01:13.538Z,11.67
2023-02-16T23:03:40.979Z,14.23
2023-02-16T23:06:15.497Z,12.43
2023-02-16T23:08:43.030Z,13.07
2023-02-16T23:11:09.960Z,14.20
2023-02-16T23:13:37.122Z,15.70
2023-02-16T23:16:09.257Z,13.13
2023-02-16T23:18:36.321Z,14.27
2023-02-16T23:21:14.728Z,16.10
2023-02-16T23:23:41.779Z,13.43
2023-02-16T23:26:08.933Z,12.90
2023-02-16T23:28:37.489Z,13.17
2023-02-16T23:31:04.786Z,12.93
2023-02-16T23:33:31.949Z,11.57
2023-02-16T23:35:58.965Z,12.37
2023-02-16T23:38:26.007Z,10.53
2023-02-16T23:41:01.524Z,13.23
2023-02-16T23:43:28.313Z,9.20
2023-02-16T23:45:55.597Z,12.00
2023-02-16T23:48:23.623Z,9.60
2023-02-16T23:50:51.751Z,9.67
2023-02-16T23:53:19.848Z,12.23
2023-02-16T23:56:07.222Z,10.80
2023-02-16T23:58:36.971Z,10.20
